createdAt,value
2022-11-28T00:03:59.405Z,25.67
2022-11-28T00:09:01.720Z,25.98
2022-11-28T00:14:03.973Z,29.70
2022-11-28T00:19:07.060Z,26.70
2022-11-28T00:24:10.015Z,24.63
2022-11-28T00:29:12.821Z,22.33
2022-11-28T00:34:16.098Z,24.40
2022-11-28T00:39:18.391Z,28.27
2022-11-28T00:44:20.440Z,26.33
2022-11-28T00:49:22.561Z,25.48
2022-11-28T00:54:24.859Z,27.60
2022-11-28T00:59:27.114Z,24.15
2022-11-28T01:04:29.326Z,30.70
2022-11-28T01:09:31.473Z,30.05
2022-11-28T01:14:33.837Z,25.40
2022-11-28T01:19:35.974Z,27.75
2022-11-28T01:24:38.174Z,32.22
2022-11-28T01:29:40.660Z,30.88
2022-11-28T01:34:43.144Z,32.28
2022-11-28T01:39:45.445Z,30.70
2022-11-28T01:44:50.485Z,30.65
2022-11-28T01:49:54.710Z,30.85
2022-11-28T01:55:00.988Z,27.23
2022-11-28T02:00:12.334Z,25.42
2022-11-28T02:05:19.981Z,26.90
2022-11-28T02:10:33.339Z,30.23
2022-11-28T02:15:38.638Z,29.80
2022-11-28T02:21:24.490Z,32.03
2022-11-28T02:26:26.693Z,27.35
2022-11-28T02:31:50.209Z,29.90
2022-11-28T02:36:58.951Z,31.25
2022-11-28T02:42:12.633Z,29.83
2022-11-28T02:47:30.636Z,35.15
2022-11-28T02:52:47.715Z,32.10
2022-11-28T02:57:53.691Z,30.08
2022-11-28T03:03:17.143Z,30.88
2022-11-28T03:09:01.151Z,33.05
2022-11-28T03:14:15.279Z,31.15
2022-11-28T03:19:27.954Z,36.13
2022-11-28T03:24:50.730Z,41.17
2022-11-28T03:29:57.272Z,36.78
2022-11-28T03:35:14.902Z,34.75
2022-11-28T03:40:24.270Z,36.67
2022-11-28T03:45:31.904Z,40.47
2022-11-28T03:50:41.591Z,34.28
2022-11-28T03:55:57.526Z,39.55
2022-11-28T04:01:02.786Z,36.65
2022-11-28T04:06:17.115Z,37.70
2022-11-28T04:11:25.664Z,45.38
2022-11-28T04:16:53.588Z,41.75
2022-11-28T04:22:02.744Z,43.60
2022-11-28T04:27:19.594Z,42.03
2022-11-28T04:32:23.742Z,42.25
2022-11-28T04:37:28.822Z,44.90
2022-11-28T04:42:36.799Z,45.13
2022-11-28T04:47:39.163Z,42.60
2022-11-28T04:52:53.861Z,46.13
2022-11-28T04:58:10.155Z,43.33
2022-11-28T05:03:12.939Z,54.47
2022-11-28T05:08:15.132Z,51.42
2022-11-28T05:13:18.106Z,50.85
2022-11-28T05:18:20.290Z,53.75
2022-11-28T05:23:22.391Z,63.20
2022-11-28T05:28:27.938Z,52.80
2022-11-28T05:33:31.218Z,50.28
2022-11-28T05:38:34.335Z,55.65
2022-11-28T05:43:36.839Z,53.58
2022-11-28T05:48:46.214Z,50.35
2022-11-28T05:53:48.393Z,66.75
2022-11-28T05:58:55.449Z,79.53
2022-11-28T06:04:01.348Z,74.65
2022-11-28T06:09:06.308Z,70.57
2022-11-28T06:14:08.741Z,59.88
2022-11-28T06:19:12.216Z,56.80
2022-11-28T06:24:18.098Z,60.15
2022-11-28T06:29:20.399Z,60.80
2022-11-28T06:34:23.329Z,62.03
2022-11-28T06:39:31.432Z,63.58
2022-11-28T06:44:33.656Z,72.55
2022-11-28T06:49:54.221Z,53.50
2022-11-28T06:54:56.454Z,55.42
2022-11-28T06:59:59.201Z,61.63
2022-11-28T07:05:01.527Z,66.70
2022-11-28T07:10:07.640Z,64.50
2022-11-28T07:15:10.240Z,57.50
2022-11-28T07:20:12.896Z,55.15
2022-11-28T07:25:15.187Z,49.33
2022-11-28T07:30:17.527Z,42.85
2022-11-28T07:35:21.702Z,40.33
2022-11-28T07:40:23.950Z,33.65
2022-11-28T07:45:37.073Z,30.08
2022-11-28T07:50:48.575Z,30.05
2022-11-28T07:55:50.729Z,33.15
2022-11-28T08:00:52.998Z,31.83
2022-11-28T08:06:02.865Z,31.38
2022-11-28T08:11:07.398Z,25.42
2022-11-28T08:16:17.119Z,23.80
2022-11-28T08:21:23.631Z,19.15
2022-11-28T08:26:30.392Z,16.63
2022-11-28T08:31:36.690Z,18.20
2022-11-28T08:36:39.213Z,17.40
2022-11-28T08:41:41.615Z,17.95
2022-11-28T08:46:43.810Z,20.88
2022-11-28T08:51:46.173Z,20.50
2022-11-28T08:56:48.734Z,18.80
2022-11-28T09:01:53.948Z,17.65
2022-11-28T09:06:56.252Z,17.15
2022-11-28T09:11:58.360Z,14.02
2022-11-28T09:17:00.873Z,16.65
2022-11-28T09:22:03.100Z,15.77
2022-11-28T09:27:05.227Z,18.85
2022-11-28T09:32:07.563Z,16.85
2022-11-28T09:37:10.224Z,18.27
2022-11-28T09:42:35.613Z,18.15
2022-11-28T09:47:40.624Z,16.80
2022-11-28T09:53:00.031Z,20.95
2022-11-28T09:58:10.562Z,21.48
2022-11-28T10:03:34.651Z,25.33
2022-11-28T10:08:45.675Z,21.02
2022-11-28T10:14:08.523Z,18.33
2022-11-28T10:19:31.529Z,34.67
2022-11-28T10:24:43.936Z,20.88
2022-11-28T10:30:12.456Z,26.08
2022-11-28T10:35:28.754Z,22.05
2022-11-28T10:40:52.401Z,19.25
2022-11-28T10:45:57.775Z,27.33
2022-11-28T10:51:30.627Z,452.15
2022-11-28T10:56:58.833Z,161.90
2022-11-28T11:02:19.066Z,38.20
2022-11-28T11:07:31.774Z,34.40
2022-11-28T11:12:34.957Z,30.50
2022-11-28T11:17:38.011Z,42.05
2022-11-28T11:22:40.119Z,30.73
2022-11-28T11:27:57.104Z,105.88
2022-11-28T11:33:02.265Z,63.28
2022-11-28T11:38:37.545Z,35.95
2022-11-28T11:43:40.339Z,27.15
2022-11-28T11:48:53.718Z,40.22
2022-11-28T11:54:03.990Z,18.55
2022-11-28T11:59:33.595Z,20.00
2022-11-28T12:04:48.063Z,27.92
2022-11-28T12:09:56.583Z,47.45
2022-11-28T12:15:00.832Z,20.80
2022-11-28T12:20:47.544Z,18.92
2022-11-28T12:26:04.623Z,18.70
2022-11-28T12:31:45.887Z,19.15
2022-11-28T12:37:42.077Z,19.52
2022-11-28T12:42:49.518Z,15.52
2022-11-28T12:48:00.632Z,13.85
2022-11-28T12:53:35.073Z,14.27
2022-11-28T12:58:44.051Z,20.75
2022-11-28T13:04:04.930Z,16.30
2022-11-28T13:09:27.455Z,22.55
2022-11-28T13:14:51.974Z,18.05
2022-11-28T13:20:15.304Z,19.95
2022-11-28T13:25:17.471Z,18.27
2022-11-28T13:30:26.145Z,21.77
2022-11-28T13:35:29.738Z,39.90
2022-11-28T13:40:50.351Z,22.75
2022-11-28T13:45:52.980Z,21.92
2022-11-28T13:51:19.150Z,18.58
2022-11-28T13:56:27.743Z,20.33
2022-11-28T14:02:01.520Z,19.25
2022-11-28T14:07:08.250Z,19.75
2022-11-28T14:12:29.258Z,18.23
2022-11-28T14:18:14.144Z,23.48
2022-11-28T14:24:04.648Z,19.88
2022-11-28T14:29:24.928Z,14.23
2022-11-28T14:34:47.364Z,12.20
2022-11-28T14:39:51.427Z,15.82
2022-11-28T14:45:07.897Z,21.73
2022-11-28T14:50:20.968Z,23.15
2022-11-28T14:55:26.242Z,17.60
2022-11-28T15:00:55.235Z,55.80
2022-11-28T15:06:08.118Z,23.95
2022-11-28T15:11:46.957Z,26.63
2022-11-28T15:16:53.294Z,21.73
2022-11-28T15:21:56.722Z,22.60
2022-11-28T15:27:08.212Z,23.25
2022-11-28T15:32:14.252Z,16.70
2022-11-28T15:37:19.378Z,329.92
2022-11-28T15:42:25.959Z,25.50
2022-11-28T15:47:29.036Z,27.13
2022-11-28T15:52:32.279Z,32.42
2022-11-28T15:57:34.489Z,29.02
2022-11-28T16:02:39.172Z,30.92
2022-11-28T16:07:45.580Z,24.73
2022-11-28T16:12:48.579Z,27.00
2022-11-28T16:17:51.135Z,29.98
2022-11-28T16:23:02.867Z,148.15
2022-11-28T16:28:31.423Z,63.35
2022-11-28T16:33:45.263Z,66.82
2022-11-28T16:38:49.448Z,38.92
2022-11-28T16:43:59.499Z,50.83
2022-11-28T16:49:03.069Z,58.78
2022-11-28T16:54:32.153Z,81.88
2022-11-28T16:59:34.398Z,90.85
2022-11-28T17:04:36.615Z,83.22
2022-11-28T17:09:39.054Z,80.43
2022-11-28T17:14:41.310Z,71.82
2022-11-28T17:19:44.628Z,62.40
2022-11-28T17:24:48.968Z,57.67
2022-11-28T17:29:51.355Z,61.47
2022-11-28T17:34:53.781Z,50.45
2022-11-28T17:40:14.615Z,26.73
2022-11-28T17:45:17.143Z,61.33
2022-11-28T17:50:19.626Z,67.22
2022-11-28T17:55:22.719Z,77.93
2022-11-28T18:00:25.137Z,92.43
2022-11-28T18:05:27.595Z,81.45
2022-11-28T18:10:30.333Z,84.90
2022-11-28T18:15:35.089Z,74.97
2022-11-28T18:20:37.947Z,56.75
2022-11-28T18:25:45.165Z,75.75
2022-11-28T18:30:48.456Z,89.35
2022-11-28T18:35:50.752Z,81.43
2022-11-28T18:40:54.118Z,84.38
2022-11-28T18:45:56.363Z,153.10
2022-11-28T18:50:58.756Z,154.20
2022-11-28T18:56:02.760Z,485.13
2022-11-28T19:01:18.096Z,178.35
2022-11-28T19:06:21.711Z,167.70
2022-11-28T19:11:24.819Z,98.20
2022-11-28T19:16:32.317Z,101.60
2022-11-28T19:21:36.311Z,108.53
2022-11-28T19:26:38.796Z,106.50
2022-11-28T19:31:42.236Z,115.35
2022-11-28T19:36:47.404Z,270.13
2022-11-28T19:41:52.155Z,127.50
2022-11-28T19:46:54.500Z,137.02
2022-11-28T19:51:56.808Z,142.23
2022-11-28T19:56:58.999Z,160.90
2022-11-28T20:02:02.985Z,278.35
2022-11-28T20:07:05.408Z,206.93
2022-11-28T20:12:08.161Z,215.52
2022-11-28T20:17:10.628Z,182.85
2022-11-28T20:22:12.770Z,219.85
2022-11-28T20:27:14.924Z,199.88
2022-11-28T20:32:17.362Z,192.05
2022-11-28T20:37:20.074Z,171.77
2022-11-28T20:42:22.114Z,243.60
2022-11-28T20:47:24.735Z,178.63
2022-11-28T20:52:27.102Z,147.32
2022-11-28T20:57:29.235Z,162.02
2022-11-28T21:02:31.332Z,154.02
2022-11-28T21:07:33.750Z,167.48
2022-11-28T21:12:36.198Z,180.48
2022-11-28T21:17:38.442Z,138.43
2022-11-28T21:22:40.522Z,170.07
2022-11-28T21:27:42.703Z,180.68
2022-11-28T21:32:44.872Z,172.40
2022-11-28T21:37:47.040Z,190.43
2022-11-28T21:42:49.073Z,178.25
2022-11-28T21:47:52.418Z,162.48
2022-11-28T21:52:54.743Z,166.30
2022-11-28T21:57:57.550Z,159.80
2022-11-28T22:03:16.426Z,221.48
2022-11-28T22:08:22.100Z,169.13
2022-11-28T22:13:24.433Z,152.02
2022-11-28T22:18:29.561Z,164.98
2022-11-28T22:23:35.031Z,165.25
2022-11-28T22:28:38.819Z,226.20
2022-11-28T22:33:42.925Z,220.13
2022-11-28T22:38:46.628Z,185.80
2022-11-28T22:43:48.883Z,162.75
2022-11-28T22:48:52.213Z,161.77
2022-11-28T22:53:58.854Z,185.43
2022-11-28T22:59:05.154Z,167.05
2022-11-28T23:04:08.383Z,165.18
2022-11-28T23:09:12.979Z,165.13
2022-11-28T23:14:15.555Z,171.15
2022-11-28T23:19:19.627Z,162.15
2022-11-28T23:24:23.168Z,151.68
2022-11-28T23:29:25.624Z,155.48
2022-11-28T23:34:27.874Z,168.80
2022-11-28T23:39:30.060Z,130.57
2022-11-28T23:44:39.066Z,161.15
2022-11-28T23:49:41.294Z,144.38
2022-11-28T23:54:43.623Z,167.38
2022-11-28T23:59:46.408Z,147.80
